Campos Altos, Brazil
Current Conditions -  °F | °C
As of 10:00 AM on Monday 22 Dec 2014 (Local Time) from SBUR Reporting Station
Overcast Overcast  
Wind Chill: 72°   Ceiling: 4500
Heat Index: 72°   Visibility: 6mi
Dew Point: 72°   Wind: 7mph
Humidity: 100%   Direction: 10°N
Pressure: 30.06"   Gusts: NA
Location:  19.7°S, 46.17°W
Report Text: SBUR 221200Z 01006KT 9999 BKN045 OVC100 22/22 Q1018
Loading
Personal Weather Stations






























Interactive Weather Map New forecast layout! Learn more

10-Day Weather Forecast

Advertisements
Track Severe Weather on mobile